Time;durP1;ratioP1;P1;durP2;ratioP2;P2;SDS_P1;SDS_P2;PMS_P1;PMS_P2;Temp;Humidity;BMP_temperature;BMP_pressure;BME280_temperature;BME280_humidity;BME280_pressure;Samples;Min_cycle;Max_cycle;Signal;HPM_P1;HPM_P2
2020/12/18 00:00:46;;;;;;;25.17;11.20;;;11.40;63.90;;;;;;5018698;28;20485;-66
2020/12/18 00:03:12;;;;;;;22.40;10.40;;;11.30;63.90;;;;;;5033884;28;20041;-66
2020/12/18 00:05:42;;;;;;;23.70;10.68;;;11.20;63.80;;;;;;5033804;28;20044;-66
2020/12/18 00:08:09;;;;;;;23.38;10.35;;;11.20;63.80;;;;;;5037485;28;20090;-66
2020/12/18 00:10:34;;;;;;;26.08;11.32;;;11.10;63.90;;;;;;5028237;28;20056;-66
2020/12/18 00:13:00;;;;;;;23.48;10.48;;;11.10;64.30;;;;;;5031002;28;20061;-66
2020/12/18 00:15:28;;;;;;;31.73;10.80;;;11.10;64.40;;;;;;5031757;28;20057;-66
2020/12/18 00:17:54;;;;;;;18.35;10.75;;;11.00;64.50;;;;;;5035394;28;20509;-66
2020/12/18 00:20:20;;;;;;;26.58;11.35;;;11.00;64.60;;;;;;5031068;28;20136;-66
2020/12/18 00:22:46;;;;;;;23.10;11.05;;;11.00;64.60;;;;;;5015019;28;20041;-66
2020/12/18 00:25:12;;;;;;;25.55;10.95;;;11.00;64.50;;;;;;5033134;28;20037;-66
2020/12/18 00:27:44;;;;;;;26.60;11.10;;;11.00;64.50;;;;;;5027881;28;20524;-66
2020/12/18 00:30:12;;;;;;;29.63;10.60;;;10.90;64.60;;;;;;5032719;28;20039;-66
2020/12/18 00:32:41;;;;;;;24.70;12.35;;;10.90;64.70;;;;;;5009237;28;20036;-66
2020/12/18 00:35:09;;;;;;;29.95;11.73;;;10.80;64.60;;;;;;5027709;28;20050;-65
2020/12/18 00:37:35;;;;;;;23.30;11.88;;;10.80;64.60;;;;;;5021971;28;20037;-65
2020/12/18 00:40:02;;;;;;;25.60;10.73;;;10.80;64.80;;;;;;5024389;28;20044;-65
2020/12/18 00:42:28;;;;;;;22.13;10.65;;;10.80;64.80;;;;;;5030286;28;20037;-65
2020/12/18 00:44:54;;;;;;;21.48;10.95;;;10.80;64.70;;;;;;5027284;28;20095;-65
2020/12/18 00:47:19;;;;;;;28.77;12.40;;;10.80;64.70;;;;;;5031755;28;20093;-66
2020/12/18 00:49:45;;;;;;;27.00;11.18;;;10.70;64.60;;;;;;5020583;28;20061;-66
2020/12/18 00:52:10;;;;;;;29.67;12.18;;;10.70;64.70;;;;;;5030210;28;20588;-66
2020/12/18 00:54:36;;;;;;;20.40;11.07;;;10.70;64.60;;;;;;5035755;28;20032;-66
2020/12/18 00:57:02;;;;;;;30.00;11.02;;;10.70;64.40;;;;;;5029224;28;20048;-66
2020/12/18 00:59:27;;;;;;;26.15;11.60;;;10.70;64.40;;;;;;5027813;28;20033;-66
2020/12/18 01:02:11;;;;;;;23.42;11.20;;;10.60;64.50;;;;;;5032278;28;20038;-66
2020/12/18 01:04:37;;;;;;;25.02;11.10;;;10.60;64.40;;;;;;5028972;28;20480;-66
2020/12/18 01:07:02;;;;;;;25.77;11.13;;;10.50;64.40;;;;;;5027354;28;20045;-66
2020/12/18 01:09:28;;;;;;;27.17;12.63;;;10.50;64.40;;;;;;5024510;28;20498;-66
2020/12/18 01:11:54;;;;;;;22.58;10.88;;;10.50;64.60;;;;;;5024128;28;20788;-66
2020/12/18 01:14:20;;;;;;;24.13;11.50;;;10.50;64.80;;;;;;5029733;28;20045;-66
2020/12/18 01:16:53;;;;;;;27.25;12.32;;;10.50;64.70;;;;;;5054560;22;20492;-61
2020/12/18 01:19:19;;;;;;;28.83;11.50;;;10.40;64.80;;;;;;5049251;28;20052;-61
2020/12/18 01:21:46;;;;;;;28.20;11.63;;;10.40;64.80;;;;;;5055370;28;20671;-62
2020/12/18 01:24:12;;;;;;;31.40;12.55;;;10.40;64.80;;;;;;5056335;28;20032;-62
2020/12/18 01:26:38;;;;;;;28.60;12.35;;;10.40;64.90;;;;;;5048271;28;20527;-61
2020/12/18 01:29:04;;;;;;;25.50;12.30;;;10.40;65.20;;;;;;5049871;28;20039;-62
2020/12/18 01:31:34;;;;;;;31.20;13.65;;;10.40;65.20;;;;;;5050238;28;20040;-62
2020/12/18 01:33:59;;;;;;;35.17;12.52;;;10.40;65.40;;;;;;5050918;28;20047;-62
2020/12/18 01:36:25;;;;;;;27.55;13.18;;;10.40;65.40;;;;;;5052927;28;20028;-62
2020/12/18 01:38:51;;;;;;;34.78;13.10;;;10.40;65.50;;;;;;5045458;28;20098;-62
2020/12/18 01:41:16;;;;;;;25.05;12.80;;;10.40;65.50;;;;;;5049199;28;20063;-61
2020/12/18 01:43:42;;;;;;;29.05;12.45;;;10.40;65.50;;;;;;5029683;28;20575;-62
2020/12/18 01:46:12;;;;;;;29.60;13.02;;;10.40;65.50;;;;;;5051460;28;20033;-61
2020/12/18 01:48:39;;;;;;;34.78;12.65;;;10.40;65.40;;;;;;5048186;28;20313;-61
2020/12/18 01:51:07;;;;;;;28.65;13.00;;;10.30;65.30;;;;;;5047088;28;20036;-62
2020/12/18 01:53:32;;;;;;;36.97;13.43;;;10.30;65.40;;;;;;5047725;28;20607;-61
2020/12/18 01:56:00;;;;;;;32.42;12.20;;;10.30;65.50;;;;;;5051828;28;20055;-62
2020/12/18 01:58:25;;;;;;;34.65;12.82;;;10.30;65.50;;;;;;5029342;28;20068;-61
2020/12/18 02:00:51;;;;;;;33.00;13.73;;;10.30;65.60;;;;;;5043168;28;20139;-61
2020/12/18 02:03:17;;;;;;;35.30;13.07;;;10.30;65.70;;;;;;5050512;28;20048;-61
2020/12/18 02:05:42;;;;;;;39.67;13.98;;;10.30;65.90;;;;;;5050099;28;20073;-61
2020/12/18 02:08:08;;;;;;;32.50;14.13;;;10.30;66.00;;;;;;5047372;28;20040;-61
2020/12/18 02:10:34;;;;;;;37.80;14.25;;;10.40;66.00;;;;;;5049892;28;20031;-62
2020/12/18 02:13:00;;;;;;;32.33;14.02;;;10.40;66.10;;;;;;5047111;28;20037;-61
2020/12/18 02:15:28;;;;;;;36.17;14.02;;;10.40;66.20;;;;;;5050366;28;20044;-61
2020/12/18 02:17:54;;;;;;;27.63;13.07;;;10.40;66.20;;;;;;5044856;28;20059;-61
2020/12/18 02:20:20;;;;;;;31.38;12.77;;;10.40;66.00;;;;;;5045881;28;20485;-62
2020/12/18 02:22:47;;;;;;;30.10;12.60;;;10.40;65.90;;;;;;5050738;28;20051;-62
2020/12/18 02:25:13;;;;;;;30.35;12.85;;;10.40;65.90;;;;;;5053317;28;20111;-61
2020/12/18 02:27:41;;;;;;;28.38;12.82;;;10.40;65.80;;;;;;5024824;28;20508;-61
2020/12/18 02:30:08;;;;;;;35.90;14.48;;;10.40;65.90;;;;;;5045532;28;20041;-62
2020/12/18 02:32:35;;;;;;;40.38;14.27;;;10.30;66.00;;;;;;5051203;28;20052;-61
2020/12/18 02:35:01;;;;;;;36.45;13.45;;;10.30;66.10;;;;;;5035116;28;20044;-62
2020/12/18 02:37:27;;;;;;;35.85;13.73;;;10.30;66.00;;;;;;5051519;28;20098;-61
2020/12/18 02:39:59;;;;;;;29.88;12.75;;;10.30;66.00;;;;;;5047374;28;20040;-61
2020/12/18 02:42:26;;;;;;;40.13;13.65;;;10.30;66.00;;;;;;5049322;28;20029;-61
2020/12/18 02:44:52;;;;;;;31.13;13.63;;;10.30;65.90;;;;;;5044236;28;20751;-62
2020/12/18 02:47:17;;;;;;;37.00;13.93;;;10.30;66.00;;;;;;5049309;28;20039;-62
2020/12/18 02:49:43;;;;;;;36.53;13.63;;;10.20;65.90;;;;;;5046001;28;20044;-61
2020/12/18 02:52:10;;;;;;;36.28;14.35;;;10.20;65.90;;;;;;5041761;28;20485;-61
2020/12/18 02:54:36;;;;;;;39.85;14.43;;;10.20;66.00;;;;;;5051086;28;20044;-61
2020/12/18 02:57:02;;;;;;;37.75;14.30;;;10.20;66.10;;;;;;5047340;28;20497;-61
2020/12/18 02:59:28;;;;;;;36.50;13.73;;;10.20;66.00;;;;;;5042743;28;20032;-61
2020/12/18 03:01:53;;;;;;;37.42;13.55;;;10.20;66.20;;;;;;5046315;28;20040;-61
2020/12/18 03:04:19;;;;;;;37.60;14.48;;;10.10;66.10;;;;;;5048938;28;20040;-61
2020/12/18 03:06:45;;;;;;;36.53;14.25;;;10.10;66.30;;;;;;5047866;28;20549;-61
2020/12/18 03:09:11;;;;;;;37.00;14.95;;;10.10;66.30;;;;;;5045366;28;20033;-61
2020/12/18 03:11:37;;;;;;;37.92;13.93;;;10.20;66.40;;;;;;5050121;28;20047;-61
2020/12/18 03:14:03;;;;;;;37.08;13.88;;;10.20;66.50;;;;;;5046436;28;20052;-61
2020/12/18 03:16:28;;;;;;;33.50;15.15;;;10.20;66.50;;;;;;5045159;28;20041;-62
2020/12/18 03:18:54;;;;;;;36.78;14.50;;;10.20;66.60;;;;;;5042922;28;20064;-61
2020/12/18 03:21:19;;;;;;;28.67;13.60;;;10.20;66.50;;;;;;5048679;28;20123;-61
2020/12/18 03:23:45;;;;;;;37.10;14.00;;;10.20;66.40;;;;;;5049805;28;20033;-62
2020/12/18 03:26:11;;;;;;;35.45;15.02;;;10.20;66.30;;;;;;5050900;28;20068;-61
2020/12/18 03:28:36;;;;;;;30.58;14.38;;;10.20;66.50;;;;;;5050152;28;20485;-62
2020/12/18 03:31:02;;;;;;;29.67;14.48;;;10.20;66.50;;;;;;5028588;28;20122;-61
2020/12/18 03:33:28;;;;;;;39.22;14.93;;;10.20;66.50;;;;;;5043998;28;20478;-61
2020/12/18 03:35:54;;;;;;;29.90;13.88;;;10.20;66.50;;;;;;5025131;28;20062;-61
2020/12/18 03:38:19;;;;;;;36.45;14.63;;;10.20;66.40;;;;;;5040761;28;20043;-61
2020/12/18 03:40:45;;;;;;;38.33;15.32;;;10.20;66.30;;;;;;5027554;28;20067;-62
2020/12/18 03:43:11;;;;;;;33.33;13.57;;;10.20;66.30;;;;;;5043718;28;20049;-61
2020/12/18 03:45:36;;;;;;;34.22;13.77;;;10.20;66.30;;;;;;5044428;28;20041;-61
2020/12/18 03:48:02;;;;;;;36.33;14.75;;;10.20;66.30;;;;;;5029560;28;20082;-61
2020/12/18 03:50:28;;;;;;;40.03;14.82;;;10.20;66.20;;;;;;5045252;28;20132;-61
2020/12/18 03:52:53;;;;;;;32.55;14.75;;;10.10;66.20;;;;;;5050957;28;20051;-61
2020/12/18 03:55:19;;;;;;;34.17;15.05;;;10.10;66.30;;;;;;5044431;28;20559;-61
2020/12/18 03:57:44;;;;;;;44.03;17.50;;;10.10;66.40;;;;;;5047108;28;20099;-61
2020/12/18 04:00:10;;;;;;;40.53;15.77;;;10.10;66.50;;;;;;5045308;28;20036;-62
2020/12/18 04:02:36;;;;;;;42.42;15.77;;;10.10;66.50;;;;;;5048280;28;20040;-61
2020/12/18 04:05:02;;;;;;;39.50;16.00;;;10.10;66.60;;;;;;5045710;28;20412;-61
2020/12/18 04:07:27;;;;;;;39.28;15.73;;;10.10;66.50;;;;;;5046761;28;20098;-61
2020/12/18 04:09:53;;;;;;;39.25;15.10;;;10.10;66.60;;;;;;5044924;28;20036;-61
2020/12/18 04:12:19;;;;;;;47.33;16.25;;;10.10;66.50;;;;;;5032237;28;20029;-61
2020/12/18 04:14:44;;;;;;;43.25;17.65;;;10.10;66.50;;;;;;5048356;28;20040;-61
2020/12/18 04:17:10;;;;;;;37.70;16.80;;;10.10;66.70;;;;;;5047897;28;20610;-61
2020/12/18 04:19:36;;;;;;;42.40;17.40;;;10.10;66.70;;;;;;5029662;28;20072;-61
2020/12/18 04:22:02;;;;;;;49.90;19.10;;;10.10;66.70;;;;;;5053632;28;20041;-61
2020/12/18 04:24:28;;;;;;;45.20;19.15;;;10.10;66.80;;;;;;5054308;28;20117;-62
2020/12/18 04:26:54;;;;;;;45.15;19.42;;;10.10;66.80;;;;;;5050664;28;20116;-61
2020/12/18 04:29:19;;;;;;;43.20;19.20;;;10.10;66.80;;;;;;5046660;28;20674;-62
2020/12/18 04:31:45;;;;;;;48.13;20.00;;;10.10;66.70;;;;;;5046590;28;20480;-61
2020/12/18 04:34:11;;;;;;;52.22;19.10;;;10.10;66.70;;;;;;5048161;28;20498;-61
2020/12/18 04:36:37;;;;;;;52.45;20.88;;;10.10;66.70;;;;;;5047694;28;20029;-61
2020/12/18 04:39:04;;;;;;;46.67;20.45;;;10.00;66.60;;;;;;5047906;28;20040;-61
2020/12/18 04:41:30;;;;;;;50.08;20.48;;;10.00;66.50;;;;;;5052295;28;20389;-61
2020/12/18 04:43:56;;;;;;;49.92;22.77;;;10.00;66.40;;;;;;5043121;28;20040;-61
2020/12/18 04:46:23;;;;;;;60.20;22.33;;;10.00;66.60;;;;;;5046824;28;20479;-61
2020/12/18 04:48:53;;;;;;;52.55;21.88;;;10.00;66.80;;;;;;5046684;28;20445;-61
2020/12/18 04:51:20;;;;;;;52.38;21.60;;;10.00;66.80;;;;;;5052902;28;20090;-61
2020/12/18 04:53:51;;;;;;;61.33;21.95;;;10.00;66.70;;;;;;5047543;28;20648;-61
2020/12/18 04:56:22;;;;;;;54.63;21.92;;;10.00;66.70;;;;;;5047643;28;20064;-61
2020/12/18 04:58:53;;;;;;;59.22;23.38;;;10.00;66.70;;;;;;5045852;28;20101;-61
2020/12/18 05:01:24;;;;;;;49.42;21.80;;;9.90;66.60;;;;;;5046023;28;20048;-61
2020/12/18 05:03:52;;;;;;;54.75;21.85;;;9.90;66.70;;;;;;5043793;28;20065;-62
2020/12/18 05:06:18;;;;;;;62.78;23.85;;;9.90;66.70;;;;;;5048523;28;20039;-61
2020/12/18 05:08:45;;;;;;;61.22;23.85;;;9.90;66.70;;;;;;5032289;28;20040;-61
2020/12/18 05:11:19;;;;;;;61.25;25.35;;;9.90;66.70;;;;;;5046292;28;20087;-61
2020/12/18 05:13:46;;;;;;;63.35;23.60;;;9.90;67.00;;;;;;5047703;28;20047;-61
2020/12/18 05:16:12;;;;;;;67.88;24.63;;;9.90;67.00;;;;;;5044951;28;20045;-62
2020/12/18 05:18:38;;;;;;;63.65;24.95;;;9.90;66.90;;;;;;5034509;28;20613;-61
2020/12/18 05:21:05;;;;;;;61.13;25.83;;;9.90;66.80;;;;;;5044655;28;20067;-61
2020/12/18 05:23:39;;;;;;;60.10;23.83;;;9.90;66.90;;;;;;5045969;28;20033;-61
2020/12/18 05:26:06;;;;;;;61.05;22.77;;;9.90;66.80;;;;;;5043531;28;20040;-61
2020/12/18 05:28:44;;;;;;;59.40;23.02;;;9.90;66.80;;;;;;5028670;28;22037;-61
2020/12/18 05:31:19;;;;;;;76.13;25.58;;;9.90;66.80;;;;;;5045700;28;20051;-61
2020/12/18 05:33:47;;;;;;;63.67;24.55;;;9.90;67.00;;;;;;5047687;28;20035;-61
2020/12/18 05:36:13;;;;;;;59.00;24.15;;;9.90;67.00;;;;;;5048319;28;20051;-61
2020/12/18 05:38:40;;;;;;;65.45;25.65;;;9.90;67.10;;;;;;5048730;28;20791;-61
2020/12/18 05:41:07;;;;;;;63.45;23.67;;;9.90;67.00;;;;;;5044799;28;20068;-61
2020/12/18 05:43:41;;;;;;;58.42;24.52;;;9.90;66.80;;;;;;5043235;28;20244;-62
2020/12/18 05:46:17;;;;;;;63.83;24.23;;;9.90;66.70;;;;;;5048495;28;20040;-61
2020/12/18 05:48:58;;;;;;;66.97;24.50;;;9.90;66.70;;;;;;5047081;28;20123;-61
2020/12/18 05:51:39;;;;;;;66.35;26.60;;;9.90;66.90;;;;;;5050730;28;20033;-61
2020/12/18 05:54:14;;;;;;;75.30;27.67;;;9.90;67.00;;;;;;5026284;28;20609;-61
2020/12/18 05:56:41;;;;;;;69.88;26.38;;;9.80;67.00;;;;;;5045765;28;20041;-61
2020/12/18 05:59:15;;;;;;;72.15;27.33;;;9.90;67.10;;;;;;5042001;28;20547;-61
2020/12/18 06:01:46;;;;;;;71.35;27.42;;;9.90;67.20;;;;;;5038075;28;20071;-61
2020/12/18 06:04:12;;;;;;;72.18;27.50;;;9.90;67.30;;;;;;5047332;28;20408;-62
2020/12/18 06:06:41;;;;;;;73.85;27.35;;;9.90;67.10;;;;;;5043544;28;20063;-62
2020/12/18 06:09:08;;;;;;;69.45;28.25;;;9.90;67.10;;;;;;5043005;28;20044;-62
2020/12/18 06:11:35;;;;;;;90.63;29.02;;;9.90;67.10;;;;;;5050991;28;20036;-62
2020/12/18 06:14:02;;;;;;;77.60;28.92;;;9.90;67.10;;;;;;5049896;28;20987;-62
2020/12/18 06:16:29;;;;;;;74.03;28.55;;;9.90;67.10;;;;;;5049996;28;20094;-62
2020/12/18 06:19:03;;;;;;;74.18;28.85;;;9.90;67.10;;;;;;5044782;28;20393;-62
2020/12/18 06:21:29;;;;;;;85.40;29.70;;;9.90;67.30;;;;;;5049498;28;20131;-62
2020/12/18 06:23:54;;;;;;;69.13;28.40;;;9.90;67.20;;;;;;5047289;28;20119;-62
2020/12/18 06:26:21;;;;;;;87.95;28.35;;;9.90;67.30;;;;;;5049364;28;20043;-62
2020/12/18 06:28:47;;;;;;;84.10;29.50;;;9.90;67.40;;;;;;5045871;28;20028;-62
2020/12/18 06:31:24;;;;;;;80.55;28.42;;;9.90;67.30;;;;;;5047656;28;20049;-62
2020/12/18 06:33:52;;;;;;;90.07;29.70;;;9.90;67.30;;;;;;5046634;28;20059;-62
2020/12/18 06:36:19;;;;;;;77.35;28.40;;;9.90;67.40;;;;;;5048593;28;20036;-63
2020/12/18 06:38:46;;;;;;;78.60;29.45;;;9.90;67.50;;;;;;5048572;28;20036;-63
2020/12/18 06:41:22;;;;;;;77.20;28.77;;;9.90;67.40;;;;;;5033745;28;20036;-62
2020/12/18 06:43:48;;;;;;;83.07;27.27;;;9.90;67.30;;;;;;5053103;28;20032;-62
2020/12/18 06:46:19;;;;;;;72.43;28.02;;;9.90;67.40;;;;;;5051688;28;20037;-62
2020/12/18 06:48:51;;;;;;;79.70;27.50;;;9.90;67.40;;;;;;5045239;28;20119;-62
2020/12/18 06:51:28;;;;;;;72.25;26.08;;;9.90;67.30;;;;;;5046232;28;20493;-62
2020/12/18 06:54:10;;;;;;;75.32;27.00;;;9.90;67.40;;;;;;5048833;28;20040;-62
2020/12/18 06:56:36;;;;;;;80.07;28.42;;;9.90;67.20;;;;;;5046781;28;20041;-62
2020/12/18 06:59:22;;;;;;;77.03;27.10;;;9.90;67.30;;;;;;5045801;28;20051;-62
2020/12/18 07:01:48;;;;;;;79.85;26.83;;;9.90;67.30;;;;;;5023616;28;20040;-62
2020/12/18 07:04:21;;;;;;;72.53;27.92;;;9.90;67.30;;;;;;5039874;28;20554;-62
2020/12/18 07:06:46;;;;;;;74.10;26.15;;;9.90;67.40;;;;;;5033448;28;20071;-62
2020/12/18 07:09:13;;;;;;;66.90;24.80;;;9.90;67.40;;;;;;5038031;28;20512;-62
2020/12/18 07:11:40;;;;;;;69.75;26.52;;;9.90;67.40;;;;;;5045516;28;20048;-62
2020/12/18 07:14:07;;;;;;;76.40;25.38;;;9.90;67.30;;;;;;5044589;28;20036;-62
2020/12/18 07:16:34;;;;;;;72.93;25.42;;;9.90;67.40;;;;;;5042859;28;20075;-62
2020/12/18 07:19:03;;;;;;;66.60;26.08;;;9.90;67.30;;;;;;5038964;28;20755;-62
2020/12/18 07:21:29;;;;;;;66.50;24.35;;;9.90;67.30;;;;;;5041541;28;20140;-62
2020/12/18 07:23:54;;;;;;;63.00;24.90;;;9.90;67.30;;;;;;5036533;28;20044;-62
2020/12/18 07:26:20;;;;;;;75.95;24.58;;;9.90;67.30;;;;;;5036887;28;20029;-62
2020/12/18 07:28:47;;;;;;;76.88;25.27;;;9.90;67.40;;;;;;5035690;28;20032;-62
2020/12/18 07:31:21;;;;;;;72.28;25.30;;;9.90;67.40;;;;;;5025983;28;20044;-62
2020/12/18 07:33:51;;;;;;;65.53;22.92;;;9.90;67.40;;;;;;5035399;28;20111;-62
2020/12/18 07:38:44;;;;;;;59.83;25.33;;;9.90;67.50;;;;;;5347688;22;20470;-66
2020/12/18 07:41:14;;;;;;;62.47;23.30;;;9.90;67.50;;;;;;5006496;28;20107;-66
2020/12/18 07:43:42;;;;;;;46.78;20.45;;;9.90;67.50;;;;;;5016140;28;20601;-66
2020/12/18 07:46:12;;;;;;;57.47;22.60;;;9.90;67.50;;;;;;5007946;28;20506;-66
2020/12/18 07:48:40;;;;;;;61.35;22.35;;;10.00;67.60;;;;;;4984003;28;20048;-66
2020/12/18 07:51:09;;;;;;;68.25;21.70;;;10.00;67.60;;;;;;5009941;28;20567;-66
2020/12/18 07:53:42;;;;;;;48.92;20.88;;;10.00;67.40;;;;;;4991937;28;20175;-67
2020/12/18 07:56:22;;;;;;;57.80;20.83;;;10.00;67.40;;;;;;4999737;28;20048;-67
2020/12/18 07:58:57;;;;;;;56.55;20.80;;;10.00;67.50;;;;;;4998851;28;20045;-68
2020/12/18 08:01:30;;;;;;;52.65;19.98;;;10.00;67.50;;;;;;5017653;28;20052;-67
2020/12/18 08:04:25;;;;;;;51.78;19.92;;;10.00;67.50;;;;;;5024787;28;20048;-67
2020/12/18 08:06:51;;;;;;;55.95;19.63;;;10.00;67.50;;;;;;4993523;28;20040;-67
2020/12/18 08:09:16;;;;;;;57.88;20.13;;;10.10;67.60;;;;;;5020063;28;20072;-67
2020/12/18 08:11:45;;;;;;;49.30;19.70;;;10.00;67.60;;;;;;5028991;28;20183;-66
2020/12/18 08:14:12;;;;;;;51.28;19.95;;;10.10;67.90;;;;;;5027063;28;20068;-66
2020/12/18 08:16:38;;;;;;;46.35;19.27;;;10.10;67.80;;;;;;5009970;28;20756;-66
2020/12/18 08:19:06;;;;;;;49.08;18.73;;;10.10;67.70;;;;;;5028652;28;20413;-66
2020/12/18 08:21:35;;;;;;;54.38;19.10;;;10.20;68.00;;;;;;5018688;28;20087;-66
2020/12/18 08:24:30;;;;;;;48.95;18.80;;;10.20;67.90;;;;;;5033337;28;20033;-66
2020/12/18 08:27:12;;;;;;;45.25;18.55;;;10.30;68.00;;;;;;5028242;28;20081;-66
2020/12/18 08:29:39;;;;;;;38.78;17.70;;;10.30;67.90;;;;;;5009526;28;20037;-66
2020/12/18 08:32:07;;;;;;;40.15;17.08;;;10.30;67.90;;;;;;5004945;28;20642;-66
2020/12/18 08:34:34;;;;;;;45.85;17.60;;;10.40;67.90;;;;;;5028278;28;20435;-66
2020/12/18 08:37:02;;;;;;;40.03;16.98;;;10.40;68.00;;;;;;5025607;28;20041;-66
2020/12/18 08:39:29;;;;;;;36.72;17.50;;;10.50;67.90;;;;;;5025595;28;20044;-66
2020/12/18 08:41:55;;;;;;;32.17;15.02;;;10.50;67.90;;;;;;5020278;28;20408;-66
2020/12/18 08:44:25;;;;;;;41.08;16.77;;;10.60;68.00;;;;;;5030381;28;20037;-66
2020/12/18 08:46:53;;;;;;;38.97;15.40;;;10.60;68.00;;;;;;5026614;28;20025;-66
2020/12/18 08:49:27;;;;;;;38.42;15.13;;;10.60;67.90;;;;;;5029540;28;20128;-66
2020/12/18 08:52:02;;;;;;;35.97;15.40;;;10.70;68.00;;;;;;5028060;28;20045;-66
2020/12/18 08:54:38;;;;;;;34.75;14.88;;;10.70;67.90;;;;;;5029117;28;20160;-66
2020/12/18 08:57:23;;;;;;;31.20;14.70;;;10.80;67.90;;;;;;5034041;28;20049;-66
2020/12/18 08:59:55;;;;;;;34.75;14.63;;;10.80;67.90;;;;;;5026116;28;20132;-68
2020/12/18 09:02:21;;;;;;;34.00;14.02;;;10.90;67.90;;;;;;5035049;28;20033;-69
2020/12/18 09:04:46;;;;;;;28.45;13.23;;;10.90;68.00;;;;;;5014670;28;20032;-69
2020/12/18 09:07:12;;;;;;;37.60;14.20;;;11.00;68.10;;;;;;5016886;28;20780;-69
2020/12/18 09:09:54;;;;;;;29.33;13.38;;;11.10;68.20;;;;;;5032142;28;20037;-69
2020/12/18 09:12:20;;;;;;;27.80;13.50;;;11.20;68.30;;;;;;5032629;28;20608;-68
2020/12/18 09:14:45;;;;;;;24.55;12.70;;;11.30;68.30;;;;;;5034663;28;20064;-69
2020/12/18 09:17:15;;;;;;;25.30;12.18;;;11.40;69.00;;;;;;5034671;28;20033;-69
2020/12/18 09:19:46;;;;;;;24.98;11.07;;;11.60;68.30;;;;;;5032767;28;20515;-69
2020/12/18 09:22:12;;;;;;;26.52;11.57;;;11.70;68.10;;;;;;5034502;28;20200;-69
2020/12/18 09:24:38;;;;;;;14.18;9.15;;;11.80;67.90;;;;;;5018451;28;20149;-69
2020/12/18 09:27:08;;;;;;;27.70;10.57;;;11.80;67.40;;;;;;5030583;28;20540;-70
2020/12/18 09:29:34;;;;;;;21.75;9.52;;;11.80;67.00;;;;;;5032936;28;20041;-69
2020/12/18 09:32:00;;;;;;;22.17;9.18;;;11.80;66.80;;;;;;5035313;28;20029;-69
2020/12/18 09:34:25;;;;;;;19.02;8.65;;;11.80;66.70;;;;;;5033097;28;20371;-69
2020/12/18 09:36:51;;;;;;;26.45;9.02;;;11.70;66.50;;;;;;5033181;28;20029;-69
2020/12/18 09:39:16;;;;;;;19.23;8.18;;;11.70;66.50;;;;;;5033716;28;20041;-69
2020/12/18 09:41:42;;;;;;;21.60;7.95;;;11.70;66.40;;;;;;5033252;28;20041;-69
2020/12/18 09:44:08;;;;;;;16.67;8.45;;;11.70;66.40;;;;;;5033296;28;20051;-69
2020/12/18 09:46:33;;;;;;;16.00;7.80;;;11.70;66.30;;;;;;5031553;28;20110;-69
2020/12/18 09:48:59;;;;;;;15.98;7.57;;;11.70;66.30;;;;;;5032205;28;20041;-69
2020/12/18 09:51:24;;;;;;;16.50;7.35;;;11.70;66.40;;;;;;5033458;28;20653;-69
2020/12/18 09:53:50;;;;;;;14.32;7.07;;;11.80;66.40;;;;;;5032833;28;20034;-69
2020/12/18 09:56:16;;;;;;;14.35;6.65;;;11.80;66.40;;;;;;5035782;28;20353;-69
2020/12/18 09:58:43;;;;;;;15.95;6.72;;;11.90;66.40;;;;;;5032935;28;20095;-68
2020/12/18 10:01:09;;;;;;;13.85;6.70;;;12.00;66.60;;;;;;5032387;28;20629;-69
2020/12/18 10:03:34;;;;;;;18.13;7.38;;;12.10;66.80;;;;;;5031993;28;20033;-69
2020/12/18 10:06:00;;;;;;;13.88;6.40;;;12.20;66.80;;;;;;5031856;28;20120;-69
2020/12/18 10:08:25;;;;;;;12.13;6.13;;;12.40;66.90;;;;;;5017814;28;21082;-69
2020/12/18 10:10:51;;;;;;;10.50;5.28;;;12.80;68.20;;;;;;5017614;28;20037;-69
2020/12/18 10:13:17;;;;;;;17.23;5.43;;;13.30;68.20;;;;;;5031926;28;20056;-69
2020/12/18 10:15:43;;;;;;;12.45;5.15;;;13.80;67.10;;;;;;5034404;28;20516;-69
2020/12/18 10:18:09;;;;;;;7.13;4.28;;;14.40;67.20;;;;;;5031771;28;20047;-69
2020/12/18 10:20:34;;;;;;;11.85;3.67;;;15.10;66.30;;;;;;5032848;28;20040;-69
2020/12/18 10:23:00;;;;;;;12.48;4.43;;;15.80;63.80;;;;;;5026512;28;20742;-68
2020/12/18 10:25:26;;;;;;;13.00;3.92;;;16.20;62.30;;;;;;5028904;28;20036;-68
2020/12/18 10:27:52;;;;;;;8.57;3.67;;;16.70;60.60;;;;;;5034106;28;20036;-68
2020/12/18 10:30:17;;;;;;;6.30;3.65;;;16.80;58.80;;;;;;5033901;28;20100;-68
2020/12/18 10:32:45;;;;;;;10.63;3.95;;;16.70;57.50;;;;;;5033699;28;20419;-68
2020/12/18 10:35:11;;;;;;;7.20;3.63;;;16.60;57.30;;;;;;5030332;28;20061;-68
2020/12/18 10:37:37;;;;;;;14.00;4.28;;;16.30;56.80;;;;;;5021221;28;20939;-68
2020/12/18 10:40:05;;;;;;;11.50;4.70;;;16.10;56.90;;;;;;5032265;28;20033;-68
2020/12/18 10:42:30;;;;;;;17.33;4.70;;;16.00;57.20;;;;;;5030747;28;20033;-68
2020/12/18 10:44:56;;;;;;;9.35;3.72;;;16.00;56.90;;;;;;5033189;28;20032;-68
2020/12/18 10:47:22;;;;;;;6.75;3.97;;;15.90;57.00;;;;;;5030432;28;20051;-69
2020/12/18 10:49:47;;;;;;;7.30;3.83;;;15.90;57.20;;;;;;5027656;28;20432;-68
2020/12/18 10:52:13;;;;;;;8.93;3.67;;;16.00;56.60;;;;;;5025948;28;20123;-69
2020/12/18 10:54:38;;;;;;;9.48;3.78;;;15.90;56.10;;;;;;5029727;28;20068;-68
2020/12/18 10:57:04;;;;;;;9.23;3.58;;;15.90;55.90;;;;;;5029246;28;20064;-68
2020/12/18 10:59:31;;;;;;;12.73;3.72;;;15.80;56.00;;;;;;5030432;28;20694;-68
2020/12/18 11:01:58;;;;;;;7.72;3.97;;;15.80;56.10;;;;;;5028890;28;20568;-68
2020/12/18 11:04:25;;;;;;;8.27;3.20;;;15.70;56.10;;;;;;5026728;28;20041;-68
2020/12/18 11:06:50;;;;;;;15.23;3.72;;;15.70;55.90;;;;;;5029805;28;20086;-68
2020/12/18 11:09:16;;;;;;;9.65;3.63;;;15.70;56.00;;;;;;5028371;28;20045;-68
2020/12/18 11:11:49;;;;;;;9.70;3.83;;;15.60;56.20;;;;;;5028077;28;20452;-68
2020/12/18 11:14:14;;;;;;;5.95;3.33;;;15.60;55.90;;;;;;5014724;28;20515;-68
2020/12/18 11:16:40;;;;;;;8.55;3.63;;;15.80;56.60;;;;;;5027916;28;20037;-68
2020/12/18 11:19:06;;;;;;;7.18;3.60;;;16.10;56.50;;;;;;5028730;28;20072;-68
2020/12/18 11:21:31;;;;;;;7.25;3.20;;;16.40;55.70;;;;;;5025887;28;20053;-69
2020/12/18 11:24:00;;;;;;;8.55;3.10;;;16.60;55.20;;;;;;5026918;28;20048;-69
2020/12/18 11:26:26;;;;;;;10.57;3.47;;;16.80;54.50;;;;;;5029772;28;20115;-68
2020/12/18 11:28:52;;;;;;;9.27;3.25;;;16.90;54.20;;;;;;5030597;28;20045;-68
2020/12/18 11:31:18;;;;;;;9.35;3.65;;;17.10;54.00;;;;;;5011639;28;20040;-68
2020/12/18 11:33:43;;;;;;;9.55;3.58;;;17.30;53.60;;;;;;5030173;28;20299;-68
2020/12/18 11:36:09;;;;;;;7.97;3.50;;;17.50;53.30;;;;;;5025856;28;20052;-68
2020/12/18 11:38:34;;;;;;;12.18;3.78;;;17.80;52.80;;;;;;5029479;28;20041;-68
2020/12/18 11:41:02;;;;;;;8.45;3.00;;;18.00;52.40;;;;;;5025832;28;20048;-68
2020/12/18 11:43:28;;;;;;;11.60;2.90;;;18.20;51.60;;;;;;5029075;28;20076;-68
2020/12/18 11:45:53;;;;;;;10.23;3.00;;;18.30;51.50;;;;;;5026729;28;20041;-69
2020/12/18 11:48:19;;;;;;;7.10;2.92;;;18.60;51.50;;;;;;5031285;28;20033;-69
2020/12/18 11:50:46;;;;;;;9.00;2.83;;;19.00;51.10;;;;;;5024977;28;20690;-68
2020/12/18 11:53:12;;;;;;;4.50;2.45;;;19.50;50.30;;;;;;5027553;28;20049;-68
2020/12/18 11:55:38;;;;;;;8.88;2.90;;;19.90;49.30;;;;;;5023504;28;20065;-68
2020/12/18 11:58:04;;;;;;;5.68;3.13;;;20.20;47.70;;;;;;5012879;28;20642;-68
2020/12/18 12:00:30;;;;;;;7.75;2.95;;;20.10;47.40;;;;;;5025463;28;20041;-69
2020/12/18 12:02:56;;;;;;;8.45;2.70;;;20.10;47.30;;;;;;5025688;28;20061;-69
2020/12/18 12:05:23;;;;;;;5.78;2.55;;;20.30;47.10;;;;;;5029083;28;20124;-69
2020/12/18 12:07:52;;;;;;;6.32;2.60;;;20.50;46.40;;;;;;5028630;28;20628;-69
2020/12/18 12:10:20;;;;;;;7.70;3.20;;;20.70;46.40;;;;;;5009405;28;20072;-69
2020/12/18 12:12:46;;;;;;;4.53;3.20;;;21.00;45.50;;;;;;5028434;28;20039;-69
2020/12/18 12:15:12;;;;;;;6.97;3.17;;;20.90;44.60;;;;;;5026250;28;20041;-69
2020/12/18 12:17:38;;;;;;;14.43;3.83;;;20.60;44.70;;;;;;5022606;28;20045;-68
2020/12/18 12:20:04;;;;;;;6.05;3.80;;;19.90;44.90;;;;;;5025094;28;20120;-68
2020/12/18 12:22:30;;;;;;;10.18;3.92;;;19.30;45.80;;;;;;5031425;28;20453;-69
2020/12/18 12:24:56;;;;;;;8.75;4.22;;;18.80;46.80;;;;;;5028584;28;20568;-68
2020/12/18 12:27:23;;;;;;;10.43;4.63;;;18.30;47.70;;;;;;5028588;28;20041;-68
2020/12/18 12:29:49;;;;;;;7.15;4.60;;;17.90;48.40;;;;;;5025683;28;20677;-69
2020/12/18 12:32:15;;;;;;;9.57;5.32;;;17.50;49.20;;;;;;5032144;28;20034;-69
2020/12/18 12:34:41;;;;;;;11.52;5.80;;;17.10;49.90;;;;;;5031400;28;24304;-69
2020/12/18 12:37:07;;;;;;;10.20;5.68;;;16.90;50.50;;;;;;5032553;28;20498;-68